Time;durP1;ratioP1;P1;durP2;ratioP2;P2;SDS_P1;SDS_P2;PMS_P1;PMS_P2;Temp;Humidity;BMP_temperature;BMP_pressure;BME280_temperature;BME280_humidity;BME280_pressure;Samples;Min_cycle;Max_cycle;Signal;HPM_P1;HPM_P2
2023/04/21 00:01:19;;;;;;;;;;;10.40;99.90;;;;;;7334687;19;108999;-66
2023/04/21 00:03:46;;;;;;;;;;;10.40;99.90;;;;;;7337283;19;108425;-66
2023/04/21 00:06:21;;;;;;;;;;;10.30;99.90;;;;;;7335269;19;109219;-66
2023/04/21 00:08:49;;;;;;;;;;;10.20;99.90;;;;;;7335679;19;109081;-66
2023/04/21 00:11:16;;;;;;;;;;;10.20;99.90;;;;;;7341247;19;109969;-67
2023/04/21 00:13:43;;;;;;;;;;;10.20;99.90;;;;;;7336440;19;109126;-67
2023/04/21 00:16:11;;;;;;;;;;;10.30;99.90;;;;;;7333204;19;109922;-67
2023/04/21 00:18:38;;;;;;;;;;;10.30;99.90;;;;;;7335928;19;109573;-66
2023/04/21 00:21:05;;;;;;;;;;;10.30;99.90;;;;;;7333505;19;114443;-87
2023/04/21 00:23:32;;;;;;;;;;;10.30;99.90;;;;;;7333591;19;108495;-86
2023/04/21 00:26:01;;;;;;;;;;;10.20;99.90;;;;;;7323559;19;109956;-86
2023/04/21 00:28:28;;;;;;;;;;;10.20;99.90;;;;;;7334559;19;110226;-86
2023/04/21 00:30:55;;;;;;;;;;;10.20;99.90;;;;;;7334386;19;108893;-87
2023/04/21 00:33:23;;;;;;;;;;;10.10;99.90;;;;;;7335898;19;112245;-87
2023/04/21 00:35:53;;;;;;;;;;;10.00;99.90;;;;;;7357049;19;108734;-87
2023/04/21 00:38:20;;;;;;;;;;;10.10;99.90;;;;;;7370979;19;110262;-87
2023/04/21 00:40:47;;;;;;;;;;;10.10;99.90;;;;;;7369072;19;109060;-87
2023/04/21 00:43:14;;;;;;;;;;;10.10;99.90;;;;;;7371660;19;107299;-87
2023/04/21 00:45:43;;;;;;;;;;;10.10;99.90;;;;;;7369661;19;109684;-87
2023/04/21 00:48:10;;;;;;;;;;;10.00;99.90;;;;;;7369964;19;108743;-86
2023/04/21 00:50:38;;;;;;;;;;;9.90;99.90;;;;;;7369760;19;107482;-86
2023/04/21 00:53:06;;;;;;;;;;;9.90;99.90;;;;;;7370876;19;108118;-87
2023/04/21 00:55:33;;;;;;;;;;;9.90;99.90;;;;;;7347702;19;111921;-87
2023/04/21 00:58:03;;;;;;;;;;;9.90;99.90;;;;;;7335598;19;111236;-87
2023/04/21 01:00:30;;;;;;;;;;;9.80;99.90;;;;;;7334344;19;110213;-87
2023/04/21 01:02:58;;;;;;;;;;;9.80;99.90;;;;;;7333506;19;108627;-87
2023/04/21 01:05:26;;;;;;;;;;;9.80;99.90;;;;;;7335542;19;109454;-87
2023/04/21 01:07:53;;;;;;;;;;;9.70;99.90;;;;;;7332963;19;111148;-87
2023/04/21 01:10:20;;;;;;;;;;;9.70;99.90;;;;;;7334265;19;113493;-87
2023/04/21 01:12:47;;;;;;;;;;;9.70;99.90;;;;;;7331594;19;109997;-67
2023/04/21 01:15:15;;;;;;;;;;;9.70;99.90;;;;;;7334222;19;109206;-67
2023/04/21 01:17:42;;;;;;;;;;;9.70;99.90;;;;;;7339507;19;108641;-67
2023/04/21 01:20:10;;;;;;;;;;;9.70;99.90;;;;;;7333437;19;109355;-67
2023/04/21 01:22:39;;;;;;;;;;;9.70;99.90;;;;;;7334963;19;108842;-67
2023/04/21 01:25:06;;;;;;;;;;;9.70;99.90;;;;;;7334492;19;108767;-67
2023/04/21 01:27:33;;;;;;;;;;;9.70;99.90;;;;;;7332555;19;110066;-67
2023/04/21 01:30:00;;;;;;;;;;;9.70;99.90;;;;;;7334186;19;109826;-67
2023/04/21 01:32:28;;;;;;;;;;;9.60;99.90;;;;;;7339299;19;110457;-67
2023/04/21 01:34:57;;;;;;;;;;;9.60;99.90;;;;;;7342104;19;110196;-67
2023/04/21 01:37:28;;;;;;;;;;;9.70;99.90;;;;;;7346144;19;108624;-67
2023/04/21 01:39:56;;;;;;;;;;;9.70;99.90;;;;;;7341472;19;111129;-70
2023/04/21 01:42:25;;;;;;;;;;;9.70;99.90;;;;;;7342233;19;108697;-67
2023/04/21 01:44:53;;;;;;;;;;;9.70;99.90;;;;;;7339858;19;109662;-67
2023/04/21 01:47:20;;;;;;;;;;;9.70;99.90;;;;;;7341789;19;110109;-67
2023/04/21 01:49:47;;;;;;;;;;;9.80;99.90;;;;;;7340381;19;108332;-67
2023/04/21 01:52:15;;;;;;;;;;;9.80;99.90;;;;;;7343555;19;108456;-67
2023/04/21 01:54:42;;;;;;;;;;;9.80;99.90;;;;;;7339541;19;109452;-67
2023/04/21 01:57:08;;;;;;;;;;;9.80;99.90;;;;;;7344614;19;108845;-67
2023/04/21 01:59:36;;;;;;;;;;;9.70;99.90;;;;;;7344854;19;109129;-67
2023/04/21 02:02:03;;;;;;;;;;;9.70;99.90;;;;;;7342784;19;109192;-67
2023/04/21 02:04:30;;;;;;;;;;;9.80;99.90;;;;;;7338911;19;113571;-67
2023/04/21 02:06:58;;;;;;;;;;;9.70;99.90;;;;;;7340036;19;109395;-67
2023/04/21 02:09:25;;;;;;;;;;;9.70;99.90;;;;;;7338752;19;108726;-67
2023/04/21 02:11:52;;;;;;;;;;;9.70;99.90;;;;;;7339563;19;108952;-67
2023/04/21 02:14:19;;;;;;;;;;;9.70;99.90;;;;;;7339284;19;109529;-67
2023/04/21 02:16:46;;;;;;;;;;;9.80;99.90;;;;;;7340591;19;109708;-67
2023/04/21 02:19:13;;;;;;;;;;;9.80;99.90;;;;;;7340880;19;109376;-66
2023/04/21 02:21:40;;;;;;;;;;;9.80;99.90;;;;;;7343107;19;112375;-67
2023/04/21 02:24:07;;;;;;;;;;;9.90;99.90;;;;;;7341298;19;108957;-67
2023/04/21 02:26:34;;;;;;;;;;;9.90;99.90;;;;;;7337250;19;110883;-67
2023/04/21 02:29:01;;;;;;;;;;;9.90;99.90;;;;;;7339445;19;108625;-69
2023/04/21 02:31:28;;;;;;;;;;;9.90;99.90;;;;;;7340315;19;109238;-67
2023/04/21 02:33:56;;;;;;;;;;;9.90;99.90;;;;;;7338529;19;109185;-67
2023/04/21 02:36:23;;;;;;;;;;;9.90;99.90;;;;;;7338198;19;111722;-67
2023/04/21 02:38:50;;;;;;;;;;;9.90;99.90;;;;;;7339047;19;109570;-67
2023/04/21 02:41:17;;;;;;;;;;;9.90;99.90;;;;;;7340306;19;109344;-67
2023/04/21 02:43:44;;;;;;;;;;;9.90;99.90;;;;;;7338537;19;109318;-67
2023/04/21 02:46:12;;;;;;;;;;;9.90;99.90;;;;;;7337945;19;109723;-67
2023/04/21 02:48:39;;;;;;;;;;;10.00;99.90;;;;;;7339021;19;108951;-67
2023/04/21 02:51:12;;;;;;;;;;;10.00;99.90;;;;;;7340451;19;109056;-67
2023/04/21 02:53:39;;;;;;;;;;;9.90;99.90;;;;;;7339472;19;109262;-67
2023/04/21 02:56:07;;;;;;;;;;;9.90;99.90;;;;;;7336203;19;108742;-67
2023/04/21 02:58:35;;;;;;;;;;;9.90;99.90;;;;;;7338715;19;109717;-63
2023/04/21 03:01:02;;;;;;;;;;;9.90;99.90;;;;;;7336281;19;109393;-63
2023/04/21 03:03:30;;;;;;;;;;;9.90;99.90;;;;;;7339211;19;109258;-63
2023/04/21 03:05:58;;;;;;;;;;;9.80;99.90;;;;;;7341748;19;108827;-63
2023/04/21 03:08:25;;;;;;;;;;;9.90;99.90;;;;;;7338542;19;113287;-64
2023/04/21 03:10:52;;;;;;;;;;;9.80;99.90;;;;;;7337575;19;110297;-65
2023/04/21 03:13:19;;;;;;;;;;;9.80;99.90;;;;;;7338773;19;109204;-63
2023/04/21 03:15:46;;;;;;;;;;;9.80;99.90;;;;;;7337997;19;110767;-63
2023/04/21 03:18:13;;;;;;;;;;;9.80;99.90;;;;;;7340594;19;110917;-63
2023/04/21 03:20:41;;;;;;;;;;;9.70;99.90;;;;;;7337579;19;110257;-63
2023/04/21 03:23:08;;;;;;;;;;;9.70;99.90;;;;;;7341581;19;108956;-63
2023/04/21 03:25:36;;;;;;;;;;;9.70;99.90;;;;;;7339537;19;108316;-63
2023/04/21 03:28:04;;;;;;;;;;;9.70;99.90;;;;;;7345449;19;109180;-63
2023/04/21 03:30:31;;;;;;;;;;;9.70;99.90;;;;;;7338921;19;108694;-63
2023/04/21 03:32:59;;;;;;;;;;;9.70;99.90;;;;;;7337173;19;109277;-64
2023/04/21 03:35:26;;;;;;;;;;;9.70;99.90;;;;;;7339322;19;109487;-63
2023/04/21 03:37:53;;;;;;;;;;;9.80;99.90;;;;;;7339387;19;109380;-64
2023/04/21 03:40:20;;;;;;;;;;;9.80;99.90;;;;;;7337011;19;109688;-63
2023/04/21 03:42:47;;;;;;;;;;;9.80;99.90;;;;;;7338637;19;108819;-63
2023/04/21 03:45:14;;;;;;;;;;;9.80;99.90;;;;;;7338448;19;109196;-64
2023/04/21 03:47:41;;;;;;;;;;;9.80;99.90;;;;;;7345343;19;110456;-63
2023/04/21 03:50:09;;;;;;;;;;;9.80;99.90;;;;;;7337987;19;109045;-64
2023/04/21 03:52:35;;;;;;;;;;;9.70;99.90;;;;;;7335568;19;109218;-64
2023/04/21 03:55:03;;;;;;;;;;;9.70;99.90;;;;;;7337764;19;108877;-63
2023/04/21 03:57:30;;;;;;;;;;;9.70;99.90;;;;;;7338286;19;108661;-63
2023/04/21 03:59:57;;;;;;;;;;;9.70;99.90;;;;;;7337318;19;109985;-64
2023/04/21 04:02:25;;;;;;;;;;;9.70;99.90;;;;;;7338780;19;111470;-63
2023/04/21 04:04:52;;;;;;;;;;;9.70;99.90;;;;;;7338189;19;109081;-64
2023/04/21 04:07:20;;;;;;;;;;;9.70;99.90;;;;;;7335334;19;112237;-63
2023/04/21 04:09:47;;;;;;;;;;;9.70;99.90;;;;;;7341586;19;108427;-63
2023/04/21 04:12:14;;;;;;;;;;;9.60;99.90;;;;;;7335828;19;109524;-63
2023/04/21 04:14:41;;;;;;;;;;;9.40;99.90;;;;;;7335517;19;108464;-63
2023/04/21 04:17:08;;;;;;;;;;;9.40;99.90;;;;;;7339281;19;108294;-69
2023/04/21 04:19:35;;;;;;;;;;;9.40;99.90;;;;;;7333804;19;109516;-65
2023/04/21 04:22:02;;;;;;;;;;;9.30;99.90;;;;;;7337498;19;108178;-71
2023/04/21 04:24:32;;;;;;;;;;;9.30;99.90;;;;;;7336622;19;109390;-66
2023/04/21 04:27:01;;;;;;;;;;;9.30;99.90;;;;;;7335606;19;109216;-64
2023/04/21 04:29:28;;;;;;;;;;;9.30;99.90;;;;;;7335953;19;109780;-65
2023/04/21 04:31:56;;;;;;;;;;;9.30;99.90;;;;;;7340262;19;109128;-64
2023/04/21 04:34:24;;;;;;;;;;;9.30;99.90;;;;;;7336421;19;108642;-63
2023/04/21 04:36:51;;;;;;;;;;;9.30;99.90;;;;;;7335863;19;109364;-63
2023/04/21 04:39:18;;;;;;;;;;;9.30;99.90;;;;;;7335087;19;109441;-63
2023/04/21 04:41:45;;;;;;;;;;;9.30;99.90;;;;;;7336249;19;109039;-64
2023/04/21 04:44:15;;;;;;;;;;;9.30;99.90;;;;;;7337308;19;109336;-71
2023/04/21 04:46:42;;;;;;;;;;;9.30;99.90;;;;;;7333119;19;109421;-68
2023/04/21 04:49:09;;;;;;;;;;;9.30;99.90;;;;;;7335512;19;109251;-71
2023/04/21 04:51:37;;;;;;;;;;;9.30;99.90;;;;;;7336040;19;108274;-70
2023/04/21 04:54:04;;;;;;;;;;;9.20;99.90;;;;;;7340986;19;110622;-63
2023/04/21 04:56:31;;;;;;;;;;;9.30;99.90;;;;;;7338506;19;108994;-65
2023/04/21 04:58:58;;;;;;;;;;;9.20;99.90;;;;;;7333662;19;109300;-63
2023/04/21 05:01:30;;;;;;;;;;;9.20;99.90;;;;;;7336916;19;108894;-63
2023/04/21 05:03:57;;;;;;;;;;;9.20;99.90;;;;;;7336457;19;108709;-63
2023/04/21 05:06:25;;;;;;;;;;;9.20;99.90;;;;;;7338808;19;109199;-63
2023/04/21 05:08:52;;;;;;;;;;;9.20;99.90;;;;;;7343078;19;110101;-63
2023/04/21 05:11:19;;;;;;;;;;;9.20;99.90;;;;;;7340643;19;109265;-63
2023/04/21 05:13:46;;;;;;;;;;;9.20;99.90;;;;;;7342864;19;109809;-63
2023/04/21 05:16:14;;;;;;;;;;;9.20;99.90;;;;;;7345928;19;109794;-63
2023/04/21 05:18:41;;;;;;;;;;;9.20;99.90;;;;;;7341110;19;109419;-63
2023/04/21 05:21:08;;;;;;;;;;;9.20;99.90;;;;;;7340783;19;111027;-63
2023/04/21 05:23:34;;;;;;;;;;;9.20;99.90;;;;;;7343266;19;108336;-63
2023/04/21 05:26:02;;;;;;;;;;;9.20;99.90;;;;;;7339407;19;110120;-63
2023/04/21 05:28:30;;;;;;;;;;;9.20;99.90;;;;;;7340971;19;109252;-63
2023/04/21 05:30:57;;;;;;;;;;;9.20;99.90;;;;;;7342244;19;108662;-64
2023/04/21 05:33:25;;;;;;;;;;;9.30;99.90;;;;;;7342163;19;108933;-65
2023/04/21 05:35:52;;;;;;;;;;;9.30;99.90;;;;;;7341977;19;108380;-65
2023/04/21 05:38:19;;;;;;;;;;;9.30;99.90;;;;;;7345882;19;108744;-64
2023/04/21 05:40:54;;;;;;;;;;;9.40;99.90;;;;;;7341248;19;108617;-66
2023/04/21 05:43:21;;;;;;;;;;;9.40;99.90;;;;;;7341481;19;108976;-64
2023/04/21 05:45:48;;;;;;;;;;;9.50;99.90;;;;;;7342156;19;109951;-64
2023/04/21 05:48:16;;;;;;;;;;;9.50;99.90;;;;;;7339781;19;108992;-64
2023/04/21 05:50:43;;;;;;;;;;;9.60;99.90;;;;;;7336940;19;109133;-64
2023/04/21 05:53:10;;;;;;;;;;;9.60;99.90;;;;;;7341968;19;111331;-64
2023/04/21 05:55:37;;;;;;;;;;;9.60;99.90;;;;;;7340439;19;108439;-66
2023/04/21 05:58:05;;;;;;;;;;;9.70;99.90;;;;;;7347904;19;109585;-65
2023/04/21 06:00:32;;;;;;;;;;;9.70;99.90;;;;;;7340793;19;108408;-65
2023/04/21 06:02:59;;;;;;;;;;;9.80;99.90;;;;;;7340801;19;108806;-65
2023/04/21 06:05:26;;;;;;;;;;;9.80;99.90;;;;;;7334468;19;110310;-66
2023/04/21 06:07:53;;;;;;;;;;;9.80;99.90;;;;;;7339995;19;110179;-68
2023/04/21 06:10:20;;;;;;;;;;;9.70;99.90;;;;;;7340660;19;108497;-64
2023/04/21 06:12:48;;;;;;;;;;;9.80;99.90;;;;;;7339731;19;110119;-65
2023/04/21 06:15:15;;;;;;;;;;;9.70;99.90;;;;;;7341797;19;108923;-65
2023/04/21 06:17:42;;;;;;;;;;;9.70;99.90;;;;;;7339064;19;109094;-64
2023/04/21 06:20:10;;;;;;;;;;;9.80;99.90;;;;;;7344817;19;110419;-64
2023/04/21 06:22:37;;;;;;;;;;;9.80;99.90;;;;;;7341530;19;109118;-65
2023/04/21 06:25:05;;;;;;;;;;;9.80;99.90;;;;;;7342419;19;109651;-64
2023/04/21 06:27:32;;;;;;;;;;;9.90;99.90;;;;;;7340250;19;108697;-65
2023/04/21 06:29:59;;;;;;;;;;;10.00;99.90;;;;;;7340058;19;109541;-64
2023/04/21 06:32:26;;;;;;;;;;;10.00;99.90;;;;;;7340427;19;110520;-64
2023/04/21 06:34:53;;;;;;;;;;;10.10;99.90;;;;;;7340732;19;109204;-63
2023/04/21 06:37:20;;;;;;;;;;;10.20;99.90;;;;;;7341523;19;109027;-64
2023/04/21 06:39:47;;;;;;;;;;;10.20;99.90;;;;;;7337924;19;109770;-64
2023/04/21 06:42:14;;;;;;;;;;;10.30;99.90;;;;;;7346723;19;108375;-64
2023/04/21 06:44:41;;;;;;;;;;;10.40;99.90;;;;;;7337623;19;109907;-64
2023/04/21 06:47:08;;;;;;;;;;;10.50;99.90;;;;;;7339029;19;108469;-64
2023/04/21 06:49:36;;;;;;;;;;;10.60;99.90;;;;;;7339491;19;111206;-64
2023/04/21 06:52:03;;;;;;;;;;;10.60;99.90;;;;;;7342951;19;109935;-64
2023/04/21 06:54:30;;;;;;;;;;;10.70;99.90;;;;;;7340108;19;108388;-64
2023/04/21 06:57:01;;;;;;;;;;;10.70;99.90;;;;;;7340451;19;109055;-66
2023/04/21 06:59:28;;;;;;;;;;;10.80;99.90;;;;;;7338403;19;111902;-64
2023/04/21 07:01:55;;;;;;;;;;;10.90;99.90;;;;;;7340571;19;109875;-65
2023/04/21 07:04:22;;;;;;;;;;;11.00;99.90;;;;;;7344629;19;109041;-66
2023/04/21 07:06:50;;;;;;;;;;;11.00;99.90;;;;;;7337214;19;108914;-65
2023/04/21 07:09:17;;;;;;;;;;;11.10;99.90;;;;;;7339057;19;108984;-64
2023/04/21 07:11:44;;;;;;;;;;;11.20;99.90;;;;;;7336678;19;109750;-64
2023/04/21 07:14:17;;;;;;;;;;;11.20;99.90;;;;;;7338520;19;110200;-64
2023/04/21 07:16:44;;;;;;;;;;;11.30;99.90;;;;;;7337803;19;108527;-64
2023/04/21 07:19:11;;;;;;;;;;;11.40;99.90;;;;;;7339002;19;109407;-65
2023/04/21 07:21:38;;;;;;;;;;;11.40;99.90;;;;;;7337014;19;108328;-64
2023/04/21 07:24:05;;;;;;;;;;;11.60;99.90;;;;;;7334821;19;114610;-64
2023/04/21 07:26:33;;;;;;;;;;;11.60;99.90;;;;;;7342053;19;109621;-64
2023/04/21 07:29:00;;;;;;;;;;;11.70;99.90;;;;;;7335422;19;109287;-64
2023/04/21 07:31:27;;;;;;;;;;;11.90;99.90;;;;;;7338533;19;110311;-64
2023/04/21 07:33:54;;;;;;;;;;;11.90;99.90;;;;;;7336498;19;108901;-65
2023/04/21 07:36:21;;;;;;;;;;;12.00;99.90;;;;;;7336622;19;109343;-64
2023/04/21 07:38:48;;;;;;;;;;;12.10;99.90;;;;;;7336790;19;109783;-64
2023/04/21 07:41:15;;;;;;;;;;;12.20;99.90;;;;;;7334771;19;108965;-65
2023/04/21 07:43:42;;;;;;;;;;;12.30;99.90;;;;;;7340164;19;109320;-64
2023/04/21 07:46:09;;;;;;;;;;;12.40;99.90;;;;;;7338082;19;111013;-65
2023/04/21 07:48:36;;;;;;;;;;;12.50;99.90;;;;;;7342230;19;108654;-64
2023/04/21 07:51:03;;;;;;;;;;;12.50;99.90;;;;;;7336986;19;109284;-64
2023/04/21 07:53:30;;;;;;;;;;;12.60;99.90;;;;;;7337881;19;108432;-64
2023/04/21 07:55:57;;;;;;;;;;;12.60;99.90;;;;;;7337154;19;108709;-64
2023/04/21 07:58:24;;;;;;;;;;;12.70;99.90;;;;;;7335586;19;110123;-64
2023/04/21 08:00:51;;;;;;;;;;;12.80;99.90;;;;;;7336105;19;109303;-64
2023/04/21 08:03:19;;;;;;;;;;;12.80;99.90;;;;;;7337032;19;109287;-64
2023/04/21 08:05:50;;;;;;;;;;;12.90;99.90;;;;;;7336581;19;109641;-64
2023/04/21 08:08:19;;;;;;;;;;;13.00;99.90;;;;;;7342860;19;108705;-65
2023/04/21 08:10:46;;;;;;;;;;;13.10;99.90;;;;;;7334824;19;112155;-64
2023/04/21 08:13:13;;;;;;;;;;;13.10;99.90;;;;;;7335956;19;108599;-65
2023/04/21 08:15:40;;;;;;;;;;;13.20;99.90;;;;;;7338177;19;109168;-65
2023/04/21 08:18:07;;;;;;;;;;;13.30;99.90;;;;;;7335742;19;110202;-65
2023/04/21 08:20:35;;;;;;;;;;;13.40;99.90;;;;;;7335223;19;109359;-72
2023/04/21 08:23:02;;;;;;;;;;;13.50;99.90;;;;;;7336068;19;110501;-72
2023/04/21 08:25:29;;;;;;;;;;;13.50;99.90;;;;;;7336217;19;109111;-72
2023/04/21 08:27:56;;;;;;;;;;;13.50;99.90;;;;;;7336938;19;109038;-69
2023/04/21 08:30:24;;;;;;;;;;;13.60;99.90;;;;;;7341763;19;109455;-65
2023/04/21 08:32:51;;;;;;;;;;;13.70;99.90;;;;;;7336320;19;108694;-65
2023/04/21 08:35:18;;;;;;;;;;;13.80;99.90;;;;;;7337101;19;108766;-69
2023/04/21 08:37:45;;;;;;;;;;;13.90;99.90;;;;;;7335800;19;109508;-65
2023/04/21 08:40:12;;;;;;;;;;;14.00;99.90;;;;;;7339569;19;109592;-65
2023/04/21 08:42:39;;;;;;;;;;;14.00;99.90;;;;;;7343143;19;108455;-65
2023/04/21 08:45:07;;;;;;;;;;;14.00;99.90;;;;;;7343147;19;110164;-65
2023/04/21 08:47:36;;;;;;;;;;;14.10;99.90;;;;;;7342001;19;108897;-68
2023/04/21 08:50:10;;;;;;;;;;;14.10;99.90;;;;;;7340813;19;109384;-65
2023/04/21 08:52:37;;;;;;;;;;;14.10;99.90;;;;;;7343407;19;112116;-64
2023/04/21 08:55:06;;;;;;;;;;;14.10;99.90;;;;;;7341263;19;108800;-65
2023/04/21 08:57:33;;;;;;;;;;;14.10;99.90;;;;;;7343763;19;110481;-65
2023/04/21 09:00:00;;;;;;;;;;;14.20;99.90;;;;;;7341993;19;110334;-64
2023/04/21 09:02:27;;;;;;;;;;;14.10;99.90;;;;;;7344479;19;108608;-65
2023/04/21 09:04:55;;;;;;;;;;;14.20;99.90;;;;;;7342974;19;109266;-65
2023/04/21 09:07:30;;;;;;;;;;;14.30;99.90;;;;;;7344230;19;108928;-65
2023/04/21 09:09:59;;;;;;;;;;;14.40;99.90;;;;;;7340741;19;109761;-65
2023/04/21 09:12:26;;;;;;;;;;;14.50;99.90;;;;;;7342697;19;110551;-65
2023/04/21 09:14:54;;;;;;;;;;;14.60;99.90;;;;;;7346642;19;108569;-65
2023/04/21 09:17:23;;;;;;;;;;;14.70;99.90;;;;;;7344356;19;109815;-65
2023/04/21 09:19:51;;;;;;;;;;;14.80;99.90;;;;;;7341200;19;108388;-66
2023/04/21 09:22:18;;;;;;;;;;;14.90;99.90;;;;;;7341875;19;108361;-65
2023/04/21 09:24:46;;;;;;;;;;;15.00;99.90;;;;;;7341008;19;112776;-65
2023/04/21 09:27:16;;;;;;;;;;;14.90;99.90;;;;;;7341941;19;108582;-65
2023/04/21 09:29:49;;;;;;;;;;;15.00;99.90;;;;;;7342551;19;108272;-65
2023/04/21 09:32:18;;;;;;;;;;;15.00;99.90;;;;;;7341791;19;109324;-65
2023/04/21 09:34:45;;;;;;;;;;;15.10;99.90;;;;;;7342771;19;108491;-65
2023/04/21 09:37:13;;;;;;;;;;;15.00;99.90;;;;;;7343548;19;108626;-65
2023/04/21 09:39:45;;;;;;;;;;;15.10;99.90;;;;;;7341496;19;108515;-66
2023/04/21 09:42:31;;;;;;;;;;;15.20;99.90;;;;;;7339940;19;108478;-65
2023/04/21 09:45:00;;;;;;;;;;;15.30;99.90;;;;;;7342933;19;113261;-65
2023/04/21 09:47:52;;;;;;;;;;;15.40;99.90;;;;;;7339686;19;110062;-65
2023/04/21 09:50:20;;;;;;;;;;;15.60;99.90;;;;;;7341191;19;110060;-66
2023/04/21 09:53:01;;;;;;;;;;;15.60;99.90;;;;;;7341372;19;109708;-65
2023/04/21 09:55:29;;;;;;;;;;;15.60;99.90;;;;;;7341546;19;108770;-67
2023/04/21 09:57:57;;;;;;;;;;;15.70;99.90;;;;;;7344887;19;108485;-66
2023/04/21 10:00:28;;;;;;;;;;;15.80;99.90;;;;;;7340152;19;108352;-66
2023/04/21 10:02:57;;;;;;;;;;;15.80;99.90;;;;;;7342628;19;108256;-66
2023/04/21 10:05:24;;;;;;;;;;;15.80;99.90;;;;;;7340646;19;112518;-66
2023/04/21 10:07:52;;;;;;;;;;;15.80;99.90;;;;;;7340746;19;109613;-66
2023/04/21 10:10:23;;;;;;;;;;;15.90;99.90;;;;;;7340853;19;109749;-68
2023/04/21 10:12:51;;;;;;;;;;;16.00;99.90;;;;;;7340098;19;112083;-67
2023/04/21 10:15:27;;;;;;;;;;;16.00;99.90;;;;;;7336286;19;109481;-65
2023/04/21 10:18:10;;;;;;;;;;;15.90;99.90;;;;;;7340720;19;108958;-65
2023/04/21 10:20:50;;;;;;;;;;;15.80;99.90;;;;;;7343099;19;109264;-66
2023/04/21 10:23:37;;;;;;;;;;;15.80;99.90;;;;;;7337327;19;109558;-71
2023/04/21 10:26:05;;;;;;;;;;;15.90;99.90;;;;;;7341619;19;111813;-67
2023/04/21 10:28:39;;;;;;;;;;;16.00;99.90;;;;;;7340044;19;109188;-66
2023/04/21 10:31:16;;;;;;;;;;;16.10;99.90;;;;;;7342477;19;109114;-66
2023/04/21 10:34:03;;;;;;;;;;;16.20;99.90;;;;;;7336633;19;109228;-65
2023/04/21 10:36:30;;;;;;;;;;;16.30;99.90;;;;;;7339783;19;108772;-66
2023/04/21 10:38:59;;;;;;;;;;;16.30;99.90;;;;;;7338333;19;108588;-67
2023/04/21 10:41:30;;;;;;;;;;;16.20;99.90;;;;;;7336270;19;110548;-65
2023/04/21 10:43:58;;;;;;;;;;;16.30;99.90;;;;;;7345248;19;109081;-66
2023/04/21 10:46:35;;;;;;;;;;;16.40;99.90;;;;;;7339761;19;109325;-66
2023/04/21 10:49:05;;;;;;;;;;;16.50;99.90;;;;;;7337622;19;108505;-67
2023/04/21 10:51:32;;;;;;;;;;;16.60;99.90;;;;;;7339611;19;108329;-66
2023/04/21 10:54:00;;;;;;;;;;;16.70;99.90;;;;;;7339131;19;110062;-66
2023/04/21 10:56:27;;;;;;;;;;;16.80;99.90;;;;;;7339799;19;108747;-66
2023/04/21 10:58:54;;;;;;;;;;;16.80;99.90;;;;;;7338993;19;108673;-66
2023/04/21 11:01:21;;;;;;;;;;;16.80;99.90;;;;;;7338988;19;109836;-66
2023/04/21 11:03:49;;;;;;;;;;;16.80;99.90;;;;;;7338181;19;109253;-66
2023/04/21 11:06:19;;;;;;;;;;;16.90;99.90;;;;;;7345177;19;108228;-66
2023/04/21 11:08:56;;;;;;;;;;;16.90;99.90;;;;;;7339256;19;108572;-66
2023/04/21 11:11:23;;;;;;;;;;;16.80;99.90;;;;;;7338781;19;108787;-65
2023/04/21 11:13:51;;;;;;;;;;;16.90;99.90;;;;;;7338367;19;109185;-65
2023/04/21 11:16:19;;;;;;;;;;;17.00;99.90;;;;;;7339558;19;108994;-65
2023/04/21 11:18:46;;;;;;;;;;;17.10;99.90;;;;;;7336382;19;109193;-65
2023/04/21 11:21:17;;;;;;;;;;;17.20;99.90;;;;;;7337431;19;109094;-65
2023/04/21 11:23:48;;;;;;;;;;;17.00;99.90;;;;;;7339237;19;108743;-65
2023/04/21 11:26:15;;;;;;;;;;;16.80;99.90;;;;;;7339497;19;109249;-68
2023/04/21 11:28:42;;;;;;;;;;;16.80;99.90;;;;;;7342148;19;110423;-64
2023/04/21 11:31:09;;;;;;;;;;;16.90;99.90;;;;;;7338707;19;108902;-66
2023/04/21 11:33:37;;;;;;;;;;;17.10;99.90;;;;;;7338223;19;109617;-66
2023/04/21 11:36:07;;;;;;;;;;;17.30;99.90;;;;;;7339172;19;109703;-66
2023/04/21 11:38:38;;;;;;;;;;;17.50;99.90;;;;;;7337906;19;108355;-65
2023/04/21 11:41:06;;;;;;;;;;;17.60;99.90;;;;;;7336958;19;110256;-65
2023/04/21 11:43:33;;;;;;;;;;;17.80;99.90;;;;;;7338257;19;109259;-66
2023/04/21 11:46:12;;;;;;;;;;;18.00;99.90;;;;;;7336799;19;108510;-66
2023/04/21 11:48:39;;;;;;;;;;;18.10;99.30;;;;;;7336418;19;109473;-66
2023/04/21 11:51:13;;;;;;;;;;;18.00;98.10;;;;;;7343682;19;108389;-65
2023/04/21 11:53:40;;;;;;;;;;;17.90;98.50;;;;;;7337563;19;109563;-65
2023/04/21 11:56:08;;;;;;;;;;;18.00;98.80;;;;;;7335740;19;110757;-66
2023/04/21 11:58:37;;;;;;;;;;;17.90;99.00;;;;;;7334247;19;109187;-66
2023/04/21 12:01:10;;;;;;;;;;;18.20;98.80;;;;;;7332757;19;111124;-66
2023/04/21 12:03:37;;;;;;;;;;;18.40;97.40;;;;;;7336419;19;108994;-66
2023/04/21 12:06:05;;;;;;;;;;;18.40;98.00;;;;;;7336495;19;109097;-66
2023/04/21 12:08:33;;;;;;;;;;;18.50;98.00;;;;;;7334627;19;110194;-66
2023/04/21 12:11:01;;;;;;;;;;;18.70;98.10;;;;;;7341467;19;108955;-66
2023/04/21 12:13:29;;;;;;;;;;;18.80;97.80;;;;;;7335934;19;111746;-65
2023/04/21 12:16:01;;;;;;;;;;;18.90;97.20;;;;;;7334641;19;108977;-66
2023/04/21 12:18:30;;;;;;;;;;;19.00;97.20;;;;;;7335450;19;108253;-66
2023/04/21 12:20:59;;;;;;;;;;;19.10;96.10;;;;;;7335328;19;109808;-66
2023/04/21 12:23:27;;;;;;;;;;;19.20;97.60;;;;;;7336134;19;109014;-66
2023/04/21 12:25:54;;;;;;;;;;;19.40;97.10;;;;;;7333541;19;108728;-66
2023/04/21 12:28:21;;;;;;;;;;;19.80;98.20;;;;;;7335880;19;109284;-66
2023/04/21 12:30:48;;;;;;;;;;;20.00;97.00;;;;;;7335476;19;109387;-66
2023/04/21 12:33:15;;;;;;;;;;;20.00;94.40;;;;;;7342020;19;109080;-66
2023/04/21 12:35:42;;;;;;;;;;;20.00;95.60;;;;;;7337125;19;108781;-66
2023/04/21 12:38:09;;;;;;;;;;;19.90;94.10;;;;;;7334483;19;111918;-66
2023/04/21 12:40:36;;;;;;;;;;;19.70;94.30;;;;;;7336069;19;110419;-64
2023/04/21 12:43:03;;;;;;;;;;;20.00;95.50;;;;;;7337163;19;108709;-66
2023/04/21 12:45:31;;;;;;;;;;;20.30;94.70;;;;;;7335891;19;108238;-66
2023/04/21 12:47:58;;;;;;;;;;;20.50;94.90;;;;;;7336033;19;110582;-66
2023/04/21 12:50:25;;;;;;;;;;;20.60;93.10;;;;;;7333185;19;109018;-67
2023/04/21 12:52:54;;;;;;;;;;;20.60;92.50;;;;;;7339946;19;109204;-66
2023/04/21 12:55:21;;;;;;;;;;;20.60;92.70;;;;;;7340214;19;110008;-66
2023/04/21 12:57:49;;;;;;;;;;;20.60;90.80;;;;;;7338021;19;108767;-66
2023/04/21 13:00:16;;;;;;;;;;;20.70;90.90;;;;;;7332425;19;110881;-66
2023/04/21 13:02:43;;;;;;;;;;;20.70;91.90;;;;;;7335528;19;109577;-66
2023/04/21 13:05:12;;;;;;;;;;;20.80;92.40;;;;;;7336784;19;109585;-66
2023/04/21 13:07:40;;;;;;;;;;;20.70;91.70;;;;;;7334471;19;109291;-66
2023/04/21 13:10:07;;;;;;;;;;;20.70;92.10;;;;;;7334539;19;108702;-66
2023/04/21 13:12:34;;;;;;;;;;;20.90;92.80;;;;;;7337548;19;108979;-67
2023/04/21 13:15:01;;;;;;;;;;;21.00;90.80;;;;;;7334213;19;109042;-67
2023/04/21 13:17:29;;;;;;;;;;;21.10;90.40;;;;;;7343431;19;108405;-66
2023/04/21 13:19:56;;;;;;;;;;;20.80;86.70;;;;;;7334876;19;109266;-66
2023/04/21 13:22:23;;;;;;;;;;;20.50;87.80;;;;;;7336231;19;108377;-67
2023/04/21 13:24:50;;;;;;;;;;;20.20;89.80;;;;;;7335023;19;111134;-66
2023/04/21 13:27:17;;;;;;;;;;;20.20;89.00;;;;;;7335011;19;110097;-65
2023/04/21 13:29:44;;;;;;;;;;;20.30;89.30;;;;;;7342532;19;108713;-74
2023/04/21 13:32:11;;;;;;;;;;;20.20;88.50;;;;;;7340601;19;108564;-74
2023/04/21 13:34:38;;;;;;;;;;;20.00;89.10;;;;;;7341358;19;109131;-72
2023/04/21 13:37:07;;;;;;;;;;;19.90;90.60;;;;;;7340520;19;110029;-69
2023/04/21 13:39:35;;;;;;;;;;;19.70;89.00;;;;;;7345060;19;111730;-74
2023/04/21 13:42:02;;;;;;;;;;;19.60;89.30;;;;;;7342975;19;108692;-73
2023/04/21 13:44:29;;;;;;;;;;;19.50;90.30;;;;;;7341247;19;111626;-72
2023/04/21 14:03:32;;;;;;;;;;;19.40;90.80;;;;;;7335435;19;112333;-65
2023/04/21 14:05:59;;;;;;;;;;;19.50;90.20;;;;;;7340462;19;109066;-66
2023/04/21 14:08:26;;;;;;;;;;;19.60;90.10;;;;;;7339365;19;109847;-65
2023/04/21 14:10:53;;;;;;;;;;;19.70;89.80;;;;;;7339976;19;108619;-66
2023/04/21 14:13:20;;;;;;;;;;;19.70;89.20;;;;;;7340638;19;109333;-65
2023/04/21 14:16:01;;;;;;;;;;;19.60;89.30;;;;;;7340918;19;113245;-65
2023/04/21 14:18:28;;;;;;;;;;;19.60;90.60;;;;;;7340838;19;108917;-66
2023/04/21 14:20:55;;;;;;;;;;;19.60;90.80;;;;;;7341129;19;108409;-65
2023/04/21 14:23:22;;;;;;;;;;;19.60;91.50;;;;;;7343853;19;110264;-65
2023/04/21 14:25:49;;;;;;;;;;;19.70;90.80;;;;;;7338583;19;108671;-65
2023/04/21 14:28:18;;;;;;;;;;;19.90;89.40;;;;;;7341298;19;109358;-65
2023/04/21 14:30:45;;;;;;;;;;;19.90;89.20;;;;;;7339422;19;108816;-65